Tropical Cyclones
[Index]
Main Index Home Page Stock Weather Photos Extreme Storms Discussion Storm News and Storm Chasing Reports Tropical Cyclones / Hurricanes / Typhoons Weather Data and Links Wild Fires / Bushfires Weather Observation Techniques Weather Picture Catalogue Tornado Pictures and Reports Stock Video Footage and DVDs for sale
Season 2010-2011 Tropical Cyclone ERROL Track Map
Season 2010-2011 Summaries: [BoM-AU] [JTWC-AU] [JTWC-SIO] [JTWC-SPAC] [JTWC-SH]
<<- Previous TC | BoM 2010-2011 Season | Next TC ->>

click for intensity scale information  Lat/long Grid: Show Hide

 Date Labels: Show Hide

Bureau of Meteorology Tropical Cyclone Data

Name: ERROL
Number: 951 / 201011_29

12 Apr 2011 00:00 UTC to 18 Apr 2011 00:00 UTC

    date/time    lat    long    hPa   cat  kts
2011-04-12 00   11.0   125.0                            
2011-04-12 06   11.2   125.4                            
2011-04-12 12   11.5   125.5                            
2011-04-12 18   11.8   125.5                            
2011-04-13 00   11.8   125.8                            
2011-04-13 06   11.9   125.9                            
2011-04-13 12   11.9   126.0                            
2011-04-13 18   11.9   125.9   1004         25          
2011-04-14 00   12.3   126.1   1004         25          
2011-04-14 06   12.3   126.2   1000         25          
2011-04-14 12   12.5   126.3   1000         25          
2011-04-14 18   12.6   126.3   1000         30          
2011-04-15 00   12.7   126.1    996         35          
2011-04-15 06   12.7   126.1    996         40          
2011-04-15 12   12.6   126.0    996         40          
2011-04-15 18   12.1   125.4    997         40          
2011-04-16 00   11.7   125.1    989    1    50          
2011-04-16 06   11.3   124.8    986    1    55          
2011-04-16 12   11.0   124.7    986    1    55          
2011-04-16 18   11.1   124.4    991    1    50          
2011-04-17 00   10.9   124.1    993    1    50          
2011-04-17 06   11.0   124.0    999         40          
2011-04-17 12   11.0   123.2   1001         35          
2011-04-17 18   10.6   123.6   1000         35          
2011-04-18 00   10.2   123.5   1002         30          
Winds are 10-min average.

Tropical cyclone tracks developed by Michael Bath using data from the Bureau of Meteorology and Google Maps.


[Australian Severe Weather index] [Copyright Notice] [Email Contacts] [Search This Site] [Privacy Policy]
Document: tropical_cyclone_errol.htm Updated: 29 June 2017